Time;durP1;ratioP1;P1;durP2;ratioP2;P2;SDS_P1;SDS_P2;PMS_P1;PMS_P2;Temp;Humidity;BMP_temperature;BMP_pressure;BME280_temperature;BME280_humidity;BME280_pressure;Samples;Min_cycle;Max_cycle;Signal;HPM_P1;HPM_P2
2023/06/07 00:02:23;;;;;;;22.83;21.53;;;;;;;;;;5040417;28;20044;-62
2023/06/07 00:04:49;;;;;;;24.23;22.83;;;;;;;;;;5042456;28;20036;-61
2023/06/07 00:07:15;;;;;;;25.77;24.27;;;;;;;;;;5039843;28;20419;-61
2023/06/07 00:09:41;;;;;;;25.80;24.30;;;;;;;;;;5018770;28;20049;-61
2023/06/07 00:12:06;;;;;;;26.87;25.30;;;;;;;;;;5019595;28;20291;-62
2023/06/07 00:14:32;;;;;;;27.93;26.20;;;;;;;;;;5021586;28;20052;-60
2023/06/07 00:16:58;;;;;;;24.23;22.83;;;;;;;;;;5023711;28;20050;-61
2023/06/07 00:19:25;;;;;;;27.63;25.87;;;;;;;;;;5025407;28;20352;-59
2023/06/07 00:21:51;;;;;;;24.13;22.73;;;;;;;;;;5024553;28;20029;-60
2023/06/07 00:24:17;;;;;;;24.60;23.20;;;;;;;;;;5024112;28;20333;-59
2023/06/07 00:26:42;;;;;;;26.67;25.07;;;;;;;;;;5025325;28;20319;-60
2023/06/07 00:29:09;;;;;;;24.40;23.00;;;;;;;;;;5014465;28;20044;-59
2023/06/07 00:31:34;;;;;;;25.90;24.40;;;;;;;;;;5038729;28;20292;-59
2023/06/07 00:34:00;;;;;;;23.57;22.27;;;;;;;;;;5025248;28;20366;-59
2023/06/07 00:36:26;;;;;;;28.63;26.60;;;;;;;;;;5022904;28;20845;-60
2023/06/07 00:38:52;;;;;;;24.87;23.37;;;;;;;;;;5024750;28;20746;-59
2023/06/07 00:41:20;;;;;;;24.87;23.37;;;;;;;;;;5038590;28;20391;-60
2023/06/07 00:43:47;;;;;;;25.00;23.43;;;;;;;;;;5025109;28;20437;-60
2023/06/07 00:46:14;;;;;;;24.70;23.30;;;;;;;;;;5040506;28;20354;-62
2023/06/07 00:48:40;;;;;;;22.10;20.80;;;;;;;;;;5026723;28;20773;-59
2023/06/07 00:51:05;;;;;;;23.33;22.03;;;;;;;;;;5026763;28;20284;-60
2023/06/07 00:53:31;;;;;;;26.33;24.87;;;;;;;;;;5025717;28;20287;-60
2023/06/07 00:55:58;;;;;;;24.50;23.10;;;;;;;;;;5040650;28;20045;-61
2023/06/07 00:58:25;;;;;;;25.80;24.27;;;;;;;;;;5024509;28;20607;-60
2023/06/07 01:00:51;;;;;;;29.13;26.93;;;;;;;;;;5032991;22;20155;-80
2023/06/07 01:03:17;;;;;;;24.07;22.57;;;;;;;;;;4958812;28;20311;-81
2023/06/07 01:05:44;;;;;;;24.43;22.83;;;;;;;;;;4963530;28;20032;-81
2023/06/07 01:08:10;;;;;;;33.30;30.23;;;;;;;;;;4972806;23;20034;-72
2023/06/07 01:10:36;;;;;;;29.23;27.13;;;;;;;;;;4997838;28;20739;-73
2023/06/07 01:13:02;;;;;;;26.83;24.93;;;;;;;;;;5001907;28;20293;-74
2023/06/07 01:15:28;;;;;;;27.80;25.83;;;;;;;;;;5015392;28;20042;-73
2023/06/07 01:17:54;;;;;;;29.00;26.97;;;;;;;;;;4999750;28;20289;-73
2023/06/07 01:20:21;;;;;;;26.53;24.73;;;;;;;;;;5002080;28;20579;-73
2023/06/07 01:22:49;;;;;;;23.90;22.30;;;;;;;;;;5006528;28;20109;-71
2023/06/07 01:25:15;;;;;;;31.20;28.93;;;;;;;;;;5006401;28;20300;-72
2023/06/07 01:27:43;;;;;;;28.00;26.13;;;;;;;;;;5002757;28;20687;-71
2023/06/07 01:30:10;;;;;;;26.00;24.30;;;;;;;;;;5002721;28;20034;-72
2023/06/07 01:32:36;;;;;;;27.87;25.97;;;;;;;;;;5004556;28;20750;-72
2023/06/07 01:35:03;;;;;;;29.00;26.83;;;;;;;;;;5003025;28;20288;-72
2023/06/07 01:37:29;;;;;;;30.60;28.40;;;;;;;;;;5000959;28;20780;-71
2023/06/07 01:39:55;;;;;;;29.37;27.27;;;;;;;;;;5002701;28;20388;-74
2023/06/07 01:42:21;;;;;;;27.40;25.57;;;;;;;;;;5001260;28;20042;-73
2023/06/07 01:44:47;;;;;;;24.97;23.33;;;;;;;;;;5001168;28;20808;-73
2023/06/07 01:47:14;;;;;;;24.33;22.73;;;;;;;;;;5001833;28;20128;-72
2023/06/07 01:49:44;;;;;;;25.37;23.67;;;;;;;;;;5002036;28;20293;-72
2023/06/07 01:52:10;;;;;;;27.30;25.57;;;;;;;;;;4999663;28;20320;-72
2023/06/07 01:54:36;;;;;;;27.57;25.77;;;;;;;;;;5001494;28;20693;-73
2023/06/07 01:57:17;;;;;;;28.27;26.37;;;;;;;;;;5003042;28;20032;-73
2023/06/07 01:59:42;;;;;;;30.57;28.47;;;;;;;;;;5004231;28;20297;-74
2023/06/07 02:02:13;;;;;;;28.03;26.13;;;;;;;;;;5002631;28;20770;-73
2023/06/07 02:04:40;;;;;;;31.23;28.93;;;;;;;;;;5003416;28;20030;-73
2023/06/07 02:07:12;;;;;;;27.63;25.73;;;;;;;;;;5005592;28;20292;-74
2023/06/07 02:09:39;;;;;;;27.37;25.47;;;;;;;;;;5005182;28;20316;-75
2023/06/07 02:12:07;;;;;;;28.30;26.40;;;;;;;;;;5004473;28;20288;-73
2023/06/07 02:14:33;;;;;;;31.10;28.87;;;;;;;;;;5003613;28;20281;-72
2023/06/07 02:16:58;;;;;;;32.20;29.97;;;;;;;;;;5002579;28;20285;-56
2023/06/07 02:19:24;;;;;;;30.00;28.00;;;;;;;;;;5001389;28;20050;-57
2023/06/07 02:21:50;;;;;;;32.60;30.37;;;;;;;;;;4998832;28;20029;-55
2023/06/07 02:24:17;;;;;;;31.00;29.00;;;;;;;;;;4999871;28;20272;-56
2023/06/07 02:26:43;;;;;;;30.23;28.40;;;;;;;;;;5000348;28;20491;-59
2023/06/07 02:29:09;;;;;;;31.13;29.20;;;;;;;;;;4998883;28;20284;-57
2023/06/07 02:31:34;;;;;;;29.70;27.87;;;;;;;;;;5001814;28;20308;-57
2023/06/07 02:34:01;;;;;;;27.93;26.20;;;;;;;;;;5002102;28;20208;-55
2023/06/07 02:36:32;;;;;;;31.10;29.03;;;;;;;;;;4988537;28;20710;-56
2023/06/07 02:38:58;;;;;;;31.63;29.63;;;;;;;;;;4997890;28;20039;-57
2023/06/07 02:41:25;;;;;;;29.60;27.70;;;;;;;;;;5000854;28;20292;-56
2023/06/07 02:43:54;;;;;;;31.67;29.50;;;;;;;;;;4998954;28;20046;-58
2023/06/07 02:46:21;;;;;;;28.87;27.03;;;;;;;;;;4998590;28;20675;-56
2023/06/07 02:48:47;;;;;;;28.47;26.60;;;;;;;;;;5000743;28;20423;-57
2023/06/07 02:51:13;;;;;;;30.33;28.30;;;;;;;;;;4988173;28;20474;-55
2023/06/07 02:53:39;;;;;;;29.23;27.37;;;;;;;;;;5000448;28;20038;-57
2023/06/07 02:56:04;;;;;;;30.47;28.50;;;;;;;;;;5015107;28;20140;-56
2023/06/07 02:58:30;;;;;;;31.43;29.40;;;;;;;;;;4998605;28;20049;-56
2023/06/07 03:00:55;;;;;;;28.20;26.47;;;;;;;;;;4998631;28;20037;-55
2023/06/07 03:03:21;;;;;;;30.47;28.53;;;;;;;;;;5017373;28;20061;-55
2023/06/07 03:05:59;;;;;;;29.80;27.83;;;;;;;;;;4998644;28;20292;-56
2023/06/07 03:08:29;;;;;;;31.43;29.33;;;;;;;;;;4996985;28;20806;-56
2023/06/07 03:10:55;;;;;;;29.30;27.50;;;;;;;;;;4998183;28;20196;-56
2023/06/07 03:13:26;;;;;;;29.83;27.93;;;;;;;;;;5000593;28;20285;-56
2023/06/07 03:15:52;;;;;;;31.17;29.17;;;;;;;;;;4999543;28;20805;-56
2023/06/07 03:18:18;;;;;;;30.30;28.33;;;;;;;;;;4998689;28;20056;-55
2023/06/07 03:20:49;;;;;;;29.57;27.67;;;;;;;;;;4996563;28;20046;-56
2023/06/07 03:23:17;;;;;;;31.70;29.57;;;;;;;;;;4988007;28;20288;-56
2023/06/07 03:25:47;;;;;;;29.10;27.27;;;;;;;;;;4998307;28;20807;-55
2023/06/07 03:28:15;;;;;;;33.27;30.97;;;;;;;;;;5015767;28;20276;-55
2023/06/07 03:30:42;;;;;;;35.93;33.83;;;;;;;;;;4983369;28;20277;-57
2023/06/07 03:33:08;;;;;;;30.03;28.10;;;;;;;;;;5014248;28;20359;-55
2023/06/07 03:35:36;;;;;;;31.70;29.60;;;;;;;;;;4997641;28;20055;-61
2023/06/07 03:38:03;;;;;;;26.83;25.03;;;;;;;;;;4998661;28;20688;-68
2023/06/07 03:40:29;;;;;;;30.10;28.00;;;;;;;;;;5003126;28;20396;-69
2023/06/07 03:42:59;;;;;;;34.53;31.97;;;;;;;;;;5004483;28;20095;-69
2023/06/07 03:45:25;;;;;;;28.13;26.23;;;;;;;;;;4997949;28;20346;-69
2023/06/07 03:48:00;;;;;;;25.77;24.03;;;;;;;;;;4999636;28;20325;-70
2023/06/07 03:50:27;;;;;;;26.80;25.10;;;;;;;;;;5007817;28;20300;-70
2023/06/07 03:52:53;;;;;;;27.73;25.83;;;;;;;;;;5002805;28;20285;-70
2023/06/07 03:55:19;;;;;;;27.80;25.87;;;;;;;;;;5002447;28;20383;-69
2023/06/07 03:57:47;;;;;;;29.27;27.13;;;;;;;;;;5002328;28;20034;-69
2023/06/07 04:00:14;;;;;;;28.80;26.70;;;;;;;;;;4990691;28;20300;-66
2023/06/07 04:02:45;;;;;;;27.27;25.23;;;;;;;;;;5009562;28;20422;-70
2023/06/07 04:05:10;;;;;;;28.23;26.33;;;;;;;;;;5003378;28;20353;-69
2023/06/07 04:07:36;;;;;;;30.57;28.37;;;;;;;;;;5001876;28;20670;-67
2023/06/07 04:10:02;;;;;;;26.37;24.67;;;;;;;;;;5004515;28;20085;-69
2023/06/07 04:12:27;;;;;;;28.23;26.23;;;;;;;;;;5001871;28;20543;-69
2023/06/07 04:14:53;;;;;;;26.27;24.50;;;;;;;;;;5007345;28;20045;-69
2023/06/07 04:17:19;;;;;;;26.07;24.37;;;;;;;;;;5018957;28;20396;-70
2023/06/07 04:19:47;;;;;;;30.80;28.67;;;;;;;;;;5002996;28;20526;-69
2023/06/07 04:22:13;;;;;;;32.00;29.67;;;;;;;;;;5000753;28;20376;-67
2023/06/07 04:24:39;;;;;;;27.77;25.87;;;;;;;;;;5002446;28;20293;-69
2023/06/07 04:27:11;;;;;;;30.27;28.07;;;;;;;;;;5002329;28;20026;-69
2023/06/07 04:29:41;;;;;;;34.63;32.00;;;;;;;;;;5000500;28;20410;-69
2023/06/07 04:32:09;;;;;;;26.00;24.33;;;;;;;;;;5003428;28;20288;-69
2023/06/07 04:34:41;;;;;;;28.63;26.67;;;;;;;;;;5003792;28;20334;-69
2023/06/07 04:37:10;;;;;;;32.33;30.10;;;;;;;;;;5000235;28;20359;-69
2023/06/07 04:39:36;;;;;;;29.87;27.70;;;;;;;;;;4989200;28;20301;-69
2023/06/07 04:42:05;;;;;;;24.97;23.40;;;;;;;;;;4993727;28;20323;-69
2023/06/07 04:44:31;;;;;;;32.63;30.33;;;;;;;;;;5018199;28;20690;-71
2023/06/07 04:47:05;;;;;;;32.63;30.53;;;;;;;;;;5001340;28;20280;-61
2023/06/07 04:49:33;;;;;;;37.13;34.37;;;;;;;;;;4990958;28;20289;-60
2023/06/07 04:52:01;;;;;;;30.80;28.77;;;;;;;;;;5002634;28;20265;-60
2023/06/07 04:54:29;;;;;;;29.67;27.73;;;;;;;;;;4999579;28;20288;-60
2023/06/07 04:56:57;;;;;;;31.00;29.00;;;;;;;;;;4990025;28;20291;-60
2023/06/07 04:59:24;;;;;;;33.57;31.27;;;;;;;;;;4999471;28;20300;-64
2023/06/07 05:01:51;;;;;;;33.50;31.17;;;;;;;;;;4999208;28;20285;-62
2023/06/07 05:04:16;;;;;;;33.03;30.83;;;;;;;;;;5001137;28;20284;-61
2023/06/07 05:06:49;;;;;;;28.90;27.00;;;;;;;;;;5001326;28;20771;-59
2023/06/07 05:09:15;;;;;;;29.07;27.27;;;;;;;;;;5019958;28;20358;-59
2023/06/07 05:11:41;;;;;;;32.50;30.33;;;;;;;;;;4990877;28;20288;-62
2023/06/07 05:14:09;;;;;;;28.33;26.57;;;;;;;;;;5004210;28;20121;-56
2023/06/07 05:16:35;;;;;;;26.80;25.10;;;;;;;;;;5000222;28;20814;-62
2023/06/07 05:19:03;;;;;;;32.97;30.37;;;;;;;;;;5006408;28;20038;-62
2023/06/07 05:21:29;;;;;;;30.70;28.67;;;;;;;;;;4990258;28;20844;-60
2023/06/07 05:23:55;;;;;;;33.37;31.00;;;;;;;;;;5003099;28;20292;-63
2023/06/07 05:26:22;;;;;;;27.53;25.87;;;;;;;;;;5004315;28;20038;-61
2023/06/07 05:28:47;;;;;;;26.60;24.60;;;;;;;;;;5001967;28;20114;-61
2023/06/07 05:31:14;;;;;;;28.33;26.53;;;;;;;;;;4991299;28;20316;-60
2023/06/07 05:33:39;;;;;;;29.20;27.30;;;;;;;;;;5016869;28;20060;-60
2023/06/07 05:36:06;;;;;;;26.73;25.03;;;;;;;;;;4999013;28;20305;-59
2023/06/07 05:38:33;;;;;;;33.30;30.87;;;;;;;;;;5016369;28;20324;-61
2023/06/07 05:40:59;;;;;;;27.60;25.83;;;;;;;;;;5005013;28;20408;-61
2023/06/07 05:43:25;;;;;;;31.13;29.03;;;;;;;;;;5001395;28;20441;-63
2023/06/07 05:45:51;;;;;;;27.73;25.93;;;;;;;;;;4998942;28;20296;-63
2023/06/07 05:48:17;;;;;;;28.60;26.73;;;;;;;;;;5016846;28;20044;-62
2023/06/07 05:50:42;;;;;;;28.60;26.80;;;;;;;;;;5001216;28;20042;-63
2023/06/07 05:53:08;;;;;;;32.70;30.40;;;;;;;;;;5001169;28;20555;-63
2023/06/07 05:55:33;;;;;;;30.67;28.67;;;;;;;;;;5000418;28;20026;-63
2023/06/07 05:58:00;;;;;;;28.10;26.43;;;;;;;;;;4999771;28;20079;-60
2023/06/07 06:00:25;;;;;;;30.10;28.20;;;;;;;;;;5001278;28;20638;-60
2023/06/07 06:02:52;;;;;;;33.17;30.97;;;;;;;;;;5000137;28;20275;-61
2023/06/07 06:05:20;;;;;;;29.67;27.77;;;;;;;;;;5000044;28;20034;-60
2023/06/07 06:07:46;;;;;;;28.37;26.60;;;;;;;;;;5002166;28;20281;-60
2023/06/07 06:10:12;;;;;;;30.07;28.13;;;;;;;;;;5001289;28;20293;-60
2023/06/07 06:12:38;;;;;;;31.97;29.90;;;;;;;;;;4999274;28;20038;-60
2023/06/07 06:15:03;;;;;;;27.93;26.30;;;;;;;;;;4999154;28;20283;-60
2023/06/07 06:17:29;;;;;;;28.73;26.97;;;;;;;;;;5002782;28;20512;-61
2023/06/07 06:19:55;;;;;;;28.23;26.47;;;;;;;;;;5000803;28;20041;-60
2023/06/07 06:22:20;;;;;;;32.20;30.10;;;;;;;;;;4999410;28;20714;-60
2023/06/07 06:24:46;;;;;;;28.43;26.70;;;;;;;;;;4999457;28;20148;-59
2023/06/07 06:27:12;;;;;;;34.50;32.13;;;;;;;;;;5001920;28;20156;-60
2023/06/07 06:29:38;;;;;;;35.50;33.07;;;;;;;;;;4997304;28;20452;-60
2023/06/07 06:32:04;;;;;;;27.87;26.20;;;;;;;;;;5001582;28;20372;-60
2023/06/07 06:34:30;;;;;;;27.97;26.27;;;;;;;;;;5002323;28;20117;-60
2023/06/07 06:36:57;;;;;;;31.83;29.67;;;;;;;;;;5000906;28;20044;-60
2023/06/07 06:39:23;;;;;;;29.30;27.37;;;;;;;;;;5000439;28;20037;-60
2023/06/07 06:41:49;;;;;;;28.97;27.03;;;;;;;;;;5002251;28;20339;-60
2023/06/07 06:44:20;;;;;;;28.10;26.40;;;;;;;;;;4992429;28;20381;-59
2023/06/07 06:46:46;;;;;;;30.70;28.60;;;;;;;;;;4999713;28;20367;-60
2023/06/07 06:49:11;;;;;;;31.00;29.03;;;;;;;;;;4999833;28;20770;-60
2023/06/07 06:51:37;;;;;;;29.30;27.40;;;;;;;;;;4998748;28;20050;-61
2023/06/07 06:54:02;;;;;;;28.80;26.93;;;;;;;;;;4999400;28;20030;-61
2023/06/07 06:56:27;;;;;;;27.10;25.40;;;;;;;;;;5000369;28;20400;-59
2023/06/07 06:58:53;;;;;;;26.13;24.53;;;;;;;;;;5000936;28;20025;-60
2023/06/07 07:01:18;;;;;;;31.57;29.47;;;;;;;;;;4997922;28;20391;-60
2023/06/07 07:03:44;;;;;;;28.60;26.73;;;;;;;;;;5000433;28;20085;-59
2023/06/07 07:06:09;;;;;;;28.17;26.47;;;;;;;;;;4998681;28;20042;-59
2023/06/07 07:08:35;;;;;;;28.60;26.80;;;;;;;;;;5000356;28;20111;-59
2023/06/07 07:11:01;;;;;;;32.63;30.50;;;;;;;;;;5014737;28;20670;-62
2023/06/07 07:13:26;;;;;;;29.50;27.67;;;;;;;;;;4999063;28;20734;-59
2023/06/07 07:15:52;;;;;;;32.53;30.53;;;;;;;;;;4999815;28;20451;-59
2023/06/07 07:18:17;;;;;;;33.13;31.23;;;;;;;;;;4998154;28;20048;-59
2023/06/07 07:20:42;;;;;;;32.47;30.70;;;;;;;;;;4999775;28;20145;-60
2023/06/07 07:23:08;;;;;;;32.27;30.47;;;;;;;;;;4999325;28;20053;-59
2023/06/07 07:25:33;;;;;;;32.70;30.80;;;;;;;;;;4999610;28;20046;-60
2023/06/07 07:27:59;;;;;;;34.83;32.87;;;;;;;;;;4999005;28;20037;-54
2023/06/07 07:30:24;;;;;;;31.27;29.43;;;;;;;;;;4998831;28;20177;-59
2023/06/07 07:32:50;;;;;;;33.40;31.60;;;;;;;;;;4999395;28;20504;-59
2023/06/07 07:35:15;;;;;;;31.27;29.57;;;;;;;;;;4999676;28;20065;-59
2023/06/07 07:37:41;;;;;;;36.03;33.93;;;;;;;;;;4998302;28;20046;-60
2023/06/07 07:40:08;;;;;;;33.57;31.77;;;;;;;;;;4998238;28;20687;-59
2023/06/07 07:42:34;;;;;;;32.07;30.37;;;;;;;;;;4999017;28;20038;-60
2023/06/07 07:45:00;;;;;;;27.83;26.33;;;;;;;;;;5000448;28;20283;-60
2023/06/07 07:47:25;;;;;;;35.13;33.17;;;;;;;;;;4999425;28;20038;-59
2023/06/07 07:49:51;;;;;;;35.17;33.27;;;;;;;;;;4997568;28;20054;-59
2023/06/07 07:52:17;;;;;;;32.57;30.73;;;;;;;;;;4999106;28;20142;-59
2023/06/07 07:54:43;;;;;;;35.83;33.70;;;;;;;;;;5000126;28;20269;-59
2023/06/07 07:57:08;;;;;;;32.47;30.67;;;;;;;;;;4999519;28;20026;-59
2023/06/07 07:59:33;;;;;;;38.60;36.07;;;;;;;;;;4997938;28;20034;-59
2023/06/07 08:01:59;;;;;;;28.77;26.83;;;;;;;;;;4999574;28;20533;-59
2023/06/07 08:04:25;;;;;;;32.00;29.80;;;;;;;;;;4997734;28;20022;-59
2023/06/07 08:06:50;;;;;;;29.90;28.00;;;;;;;;;;4999153;28;20038;-59
2023/06/07 08:09:16;;;;;;;33.00;30.73;;;;;;;;;;4997796;28;20501;-59
2023/06/07 08:11:41;;;;;;;28.93;27.03;;;;;;;;;;4996830;28;20340;-58
2023/06/07 08:14:07;;;;;;;27.13;25.47;;;;;;;;;;5000008;28;20443;-57
2023/06/07 08:16:32;;;;;;;31.30;29.20;;;;;;;;;;4999881;28;20099;-60
2023/06/07 08:18:58;;;;;;;28.70;26.97;;;;;;;;;;4998996;28;20425;-63
2023/06/07 08:21:25;;;;;;;29.97;28.03;;;;;;;;;;4995753;28;20499;-61
2023/06/07 08:23:54;;;;;;;26.93;25.23;;;;;;;;;;5000309;28;20041;-61
2023/06/07 08:26:20;;;;;;;27.63;26.00;;;;;;;;;;5000193;28;20309;-61
2023/06/07 08:28:45;;;;;;;30.80;28.80;;;;;;;;;;4997753;28;20831;-61
2023/06/07 08:31:11;;;;;;;25.93;24.33;;;;;;;;;;4998345;28;20042;-60
2023/06/07 08:33:37;;;;;;;28.20;26.47;;;;;;;;;;5000037;28;20022;-61
2023/06/07 08:36:02;;;;;;;30.80;28.87;;;;;;;;;;5001205;28;20343;-61
2023/06/07 08:38:28;;;;;;;29.80;27.90;;;;;;;;;;5001113;28;20111;-61
2023/06/07 08:40:55;;;;;;;33.50;31.47;;;;;;;;;;5000619;28;20495;-61
2023/06/07 08:43:21;;;;;;;27.27;25.67;;;;;;;;;;5004110;28;20287;-61
2023/06/07 08:45:47;;;;;;;29.43;27.47;;;;;;;;;;5004541;28;20304;-60
2023/06/07 08:48:13;;;;;;;32.00;30.00;;;;;;;;;;5002547;28;20034;-61
2023/06/07 08:50:38;;;;;;;31.77;29.83;;;;;;;;;;5000521;28;20702;-61
2023/06/07 08:53:07;;;;;;;28.37;26.57;;;;;;;;;;5002820;28;20483;-61
2023/06/07 08:55:34;;;;;;;29.03;27.23;;;;;;;;;;5002759;28;20184;-61
2023/06/07 08:58:00;;;;;;;31.03;28.93;;;;;;;;;;5002575;28;20276;-60
2023/06/07 09:00:26;;;;;;;42.70;39.50;;;;;;;;;;4993754;28;20037;-60
2023/06/07 09:02:52;;;;;;;28.80;27.03;;;;;;;;;;5004197;28;20336;-68
2023/06/07 09:05:21;;;;;;;30.17;28.17;;;;;;;;;;5006179;28;20284;-58
2023/06/07 09:07:47;;;;;;;34.20;32.00;;;;;;;;;;5004207;28;20809;-61
2023/06/07 09:10:13;;;;;;;33.87;31.73;;;;;;;;;;4987671;28;20297;-60
2023/06/07 09:12:39;;;;;;;32.10;30.17;;;;;;;;;;5001331;28;20042;-61
2023/06/07 09:15:06;;;;;;;34.90;32.17;;;;;;;;;;5000410;28;20600;-64
2023/06/07 09:17:53;;;;;;;35.67;33.37;;;;;;;;;;4999622;28;20315;-61
2023/06/07 09:20:23;;;;;;;35.60;33.17;;;;;;;;;;4999404;28;20695;-61
2023/06/07 09:22:56;;;;;;;34.93;32.90;;;;;;;;;;5001466;28;20273;-61
2023/06/07 09:25:22;;;;;;;38.63;36.27;;;;;;;;;;4998615;28;20745;-61
2023/06/07 09:27:51;;;;;;;34.40;32.37;;;;;;;;;;5000200;28;20376;-62
2023/06/07 09:30:18;;;;;;;36.90;34.80;;;;;;;;;;5003276;28;20503;-62
2023/06/07 09:32:43;;;;;;;39.20;37.00;;;;;;;;;;5002696;28;20506;-62
2023/06/07 09:35:13;;;;;;;35.80;33.67;;;;;;;;;;5001074;28;20132;-62
2023/06/07 09:37:42;;;;;;;34.77;32.77;;;;;;;;;;5000402;28;20603;-62
2023/06/07 09:40:08;;;;;;;40.17;37.77;;;;;;;;;;5001040;28;20048;-62
2023/06/07 09:42:34;;;;;;;35.40;33.27;;;;;;;;;;4999678;28;20073;-63
2023/06/07 09:45:10;;;;;;;30.97;29.23;;;;;;;;;;5002419;28;20087;-63
2023/06/07 09:47:36;;;;;;;34.50;32.40;;;;;;;;;;4998887;28;20040;-62
2023/06/07 09:50:09;;;;;;;34.47;32.47;;;;;;;;;;5000391;28;20069;-63
2023/06/07 09:52:34;;;;;;;33.90;31.97;;;;;;;;;;4999731;28;20580;-62
2023/06/07 09:55:02;;;;;;;37.33;34.73;;;;;;;;;;5001022;28;20403;-62
2023/06/07 09:57:28;;;;;;;39.70;37.30;;;;;;;;;;4999211;28;20547;-63
2023/06/07 10:00:13;;;;;;;34.87;32.97;;;;;;;;;;5002901;28;20042;-63
2023/06/07 10:02:39;;;;;;;37.97;35.78;;;;;;;;;;5002217;28;20495;-63
2023/06/07 10:05:06;;;;;;;38.23;35.93;;;;;;;;;;4998199;28;20041;-62
2023/06/07 10:07:41;;;;;;;38.53;36.27;;;;;;;;;;5000520;28;20049;-61
2023/06/07 10:10:08;;;;;;;36.83;34.63;;;;;;;;;;4999818;28;20269;-63
2023/06/07 10:12:38;;;;;;;35.47;33.53;;;;;;;;;;5000877;28;20033;-63
2023/06/07 10:15:06;;;;;;;35.47;33.47;;;;;;;;;;5001541;28;20033;-61
2023/06/07 10:17:58;;;;;;;36.27;34.00;;;;;;;;;;5016594;28;20076;-61
2023/06/07 10:20:26;;;;;;;38.53;36.10;;;;;;;;;;5017467;28;20045;-62
2023/06/07 10:23:03;;;;;;;36.00;34.00;;;;;;;;;;5019206;28;20060;-62
2023/06/07 10:25:32;;;;;;;36.23;34.03;;;;;;;;;;5019323;28;20122;-62
2023/06/07 10:28:07;;;;;;;32.87;30.93;;;;;;;;;;5018555;28;20126;-64
2023/06/07 10:30:34;;;;;;;33.25;31.38;;;;;;;;;;5016890;28;20103;-62
2023/06/07 10:33:00;;;;;;;33.27;31.30;;;;;;;;;;5017878;28;20506;-62
2023/06/07 10:35:26;;;;;;;33.77;31.77;;;;;;;;;;5018155;28;20403;-62
2023/06/07 10:37:53;;;;;;;33.57;31.40;;;;;;;;;;5016987;28;20288;-66
2023/06/07 10:40:20;;;;;;;33.77;31.57;;;;;;;;;;5019572;28;20501;-66
2023/06/07 10:42:46;;;;;;;30.60;28.80;;;;;;;;;;5020365;28;20443;-65
2023/06/07 10:45:16;;;;;;;33.63;31.53;;;;;;;;;;5016273;28;20252;-66
2023/06/07 10:47:42;;;;;;;33.40;31.37;;;;;;;;;;5017872;28;20081;-66
2023/06/07 10:50:08;;;;;;;31.93;29.97;;;;;;;;;;5017461;28;20052;-67
2023/06/07 10:52:33;;;;;;;35.40;33.20;;;;;;;;;;5015785;28;20540;-65
2023/06/07 10:54:59;;;;;;;32.70;30.77;;;;;;;;;;5019378;28;20037;-65
2023/06/07 10:57:35;;;;;;;33.10;31.17;;;;;;;;;;5009009;28;20642;-64
2023/06/07 11:00:19;;;;;;;34.20;32.07;;;;;;;;;;5000723;28;20038;-67
2023/06/07 11:02:45;;;;;;;33.33;31.30;;;;;;;;;;5000007;28;20042;-67
2023/06/07 11:05:11;;;;;;;33.93;31.80;;;;;;;;;;5001189;28;20534;-67
2023/06/07 11:07:41;;;;;;;34.33;32.20;;;;;;;;;;5000680;28;20488;-65
2023/06/07 11:10:09;;;;;;;33.80;31.73;;;;;;;;;;5000784;28;20057;-68
2023/06/07 11:12:34;;;;;;;33.97;31.97;;;;;;;;;;4999915;28;20061;-71
2023/06/07 11:15:27;;;;;;;35.17;32.97;;;;;;;;;;4999721;28;20033;-70
2023/06/07 11:17:53;;;;;;;33.00;31.00;;;;;;;;;;5003158;28;20060;-72
2023/06/07 11:20:37;;;;;;;39.60;36.97;;;;;;;;;;4997421;28;20476;-75
2023/06/07 11:23:21;;;;;;;35.67;33.50;;;;;;;;;;4998494;28;20038;-74
2023/06/07 11:25:58;;;;;;;35.30;33.20;;;;;;;;;;5000528;28;20029;-74
2023/06/07 11:28:25;;;;;;;38.17;35.83;;;;;;;;;;4997518;28;20276;-72
2023/06/07 11:30:51;;;;;;;38.20;36.00;;;;;;;;;;5000132;28;20439;-69
2023/06/07 11:33:17;;;;;;;37.70;35.50;;;;;;;;;;4998857;28;20061;-73
2023/06/07 11:35:43;;;;;;;36.57;34.43;;;;;;;;;;4999450;28;20109;-72
2023/06/07 11:38:09;;;;;;;34.40;32.40;;;;;;;;;;4999508;28;20491;-72
2023/06/07 11:40:35;;;;;;;38.27;35.90;;;;;;;;;;4998750;28;20485;-74
2023/06/07 11:43:01;;;;;;;38.63;36.37;;;;;;;;;;4998866;28;20041;-74
2023/06/07 11:45:27;;;;;;;37.17;35.03;;;;;;;;;;5001085;28;20029;-74
2023/06/07 11:47:56;;;;;;;40.37;38.23;;;;;;;;;;5001229;28;20452;-60
2023/06/07 11:50:22;;;;;;;42.83;40.47;;;;;;;;;;4998068;28;20520;-60
2023/06/07 11:52:48;;;;;;;42.67;40.37;;;;;;;;;;4998164;28;20052;-63
2023/06/07 11:55:16;;;;;;;39.33;37.23;;;;;;;;;;5002998;28;20034;-60
2023/06/07 11:57:43;;;;;;;40.57;38.37;;;;;;;;;;4988643;28;20046;-61
2023/06/07 12:00:15;;;;;;;44.50;42.03;;;;;;;;;;4999744;28;20033;-59
2023/06/07 12:02:41;;;;;;;44.60;42.13;;;;;;;;;;4998928;28;20053;-59
2023/06/07 12:05:10;;;;;;;52.20;49.37;;;;;;;;;;4999236;28;20088;-59
2023/06/07 12:07:36;;;;;;;44.87;42.50;;;;;;;;;;4999510;28;20042;-59
2023/06/07 12:10:05;;;;;;;47.97;45.37;;;;;;;;;;4998095;28;20058;-59
2023/06/07 12:12:31;;;;;;;46.57;43.97;;;;;;;;;;4995275;28;20475;-59
2023/06/07 12:15:03;;;;;;;42.77;40.57;;;;;;;;;;4998802;28;20062;-59
2023/06/07 12:17:35;;;;;;;42.30;40.17;;;;;;;;;;5002791;28;20443;-59
2023/06/07 12:20:08;;;;;;;46.90;44.37;;;;;;;;;;4993529;28;20033;-59
2023/06/07 12:22:33;;;;;;;46.50;43.80;;;;;;;;;;5000646;28;20704;-59
2023/06/07 12:25:14;;;;;;;44.13;41.63;;;;;;;;;;5003289;28;20422;-59
2023/06/07 12:27:44;;;;;;;47.77;44.77;;;;;;;;;;5006510;28;20561;-60
2023/06/07 12:30:09;;;;;;;49.30;46.30;;;;;;;;;;5004800;28;20041;-58
2023/06/07 12:32:35;;;;;;;46.80;44.00;;;;;;;;;;5004054;28;20037;-58
2023/06/07 12:35:01;;;;;;;46.00;43.30;;;;;;;;;;5001736;28;20030;-61
2023/06/07 12:37:27;;;;;;;46.70;44.00;;;;;;;;;;5003774;28;20029;-59
2023/06/07 12:39:53;;;;;;;46.53;43.87;;;;;;;;;;5005269;28;20689;-58
2023/06/07 12:42:21;;;;;;;48.53;45.67;;;;;;;;;;5004245;28;20977;-59
2023/06/07 12:44:47;;;;;;;51.80;48.47;;;;;;;;;;5002094;28;20136;-59
2023/06/07 12:47:12;;;;;;;51.43;48.43;;;;;;;;;;5002950;28;20121;-59
2023/06/07 12:49:38;;;;;;;47.53;44.77;;;;;;;;;;5003051;28;20099;-59
2023/06/07 12:52:04;;;;;;;49.47;46.67;;;;;;;;;;5003614;28;20546;-59
2023/06/07 12:54:30;;;;;;;46.90;44.23;;;;;;;;;;5002810;28;20141;-59
2023/06/07 12:56:55;;;;;;;47.60;44.43;;;;;;;;;;5003264;28;20032;-68
2023/06/07 12:59:21;;;;;;;42.77;40.37;;;;;;;;;;5003622;28;20143;-67
2023/06/07 13:01:46;;;;;;;44.37;41.73;;;;;;;;;;5003153;28;20598;-68
2023/06/07 13:04:12;;;;;;;46.63;43.77;;;;;;;;;;5002649;28;20038;-68
2023/06/07 13:06:38;;;;;;;46.77;43.93;;;;;;;;;;5003586;28;20061;-68
2023/06/07 13:09:07;;;;;;;43.87;41.40;;;;;;;;;;5019218;28;20145;-67
2023/06/07 13:11:34;;;;;;;48.70;45.77;;;;;;;;;;5000346;28;20535;-67
2023/06/07 13:13:59;;;;;;;43.53;41.03;;;;;;;;;;5002416;28;20026;-67
2023/06/07 13:16:25;;;;;;;45.03;42.40;;;;;;;;;;5002344;28;20428;-68
2023/06/07 13:18:51;;;;;;;45.10;42.47;;;;;;;;;;5003305;28;20017;-67
2023/06/07 13:21:17;;;;;;;44.17;41.63;;;;;;;;;;5002453;28;20034;-67
2023/06/07 13:23:43;;;;;;;45.80;43.20;;;;;;;;;;4990903;28;20046;-68
2023/06/07 13:26:09;;;;;;;42.60;40.13;;;;;;;;;;4990236;28;20017;-67
2023/06/07 13:28:34;;;;;;;44.87;42.27;;;;;;;;;;5002721;28;20516;-67
2023/06/07 13:31:00;;;;;;;41.67;39.30;;;;;;;;;;5004268;28;20065;-67
2023/06/07 13:33:25;;;;;;;44.60;42.10;;;;;;;;;;5002036;28;20044;-66
2023/06/07 13:35:51;;;;;;;44.27;41.63;;;;;;;;;;5002496;28;20092;-66
2023/06/07 13:38:17;;;;;;;46.23;43.43;;;;;;;;;;5002698;28;20593;-67
2023/06/07 13:40:42;;;;;;;42.50;40.20;;;;;;;;;;5001434;28;20041;-66
2023/06/07 13:43:07;;;;;;;45.80;43.10;;;;;;;;;;5003278;28;20046;-66
2023/06/07 13:45:33;;;;;;;44.63;42.13;;;;;;;;;;5002312;28;20068;-66
2023/06/07 13:47:59;;;;;;;42.60;40.17;;;;;;;;;;5003068;28;20655;-66
2023/06/07 13:50:25;;;;;;;44.30;41.57;;;;;;;;;;5003031;28;20038;-67
2023/06/07 13:52:52;;;;;;;45.57;43.00;;;;;;;;;;5002102;28;20484;-66
2023/06/07 13:55:18;;;;;;;45.40;42.70;;;;;;;;;;5002746;28;20060;-68
2023/06/07 13:57:43;;;;;;;43.33;40.80;;;;;;;;;;5002261;28;20042;-67
2023/06/07 14:00:09;;;;;;;44.07;41.27;;;;;;;;;;5000426;28;20038;-68
2023/06/07 14:02:37;;;;;;;44.13;41.50;;;;;;;;;;5003053;28;20038;-67
2023/06/07 14:05:03;;;;;;;43.63;40.90;;;;;;;;;;5001794;28;20041;-67
2023/06/07 14:07:29;;;;;;;46.63;43.90;;;;;;;;;;5001595;28;20445;-63
2023/06/07 14:09:55;;;;;;;49.90;46.97;;;;;;;;;;5002940;28;20129;-63
2023/06/07 14:12:21;;;;;;;46.80;44.10;;;;;;;;;;5001050;28;20026;-62
2023/06/07 14:14:46;;;;;;;47.20;44.17;;;;;;;;;;5001594;28;20048;-67
2023/06/07 14:17:11;;;;;;;43.63;40.97;;;;;;;;;;5002345;28;20064;-65